Time;durP1;ratioP1;P1;durP2;ratioP2;P2;SDS_P1;SDS_P2;PMS_P1;PMS_P2;Temp;Humidity;BMP_temperature;BMP_pressure;BME280_temperature;BME280_humidity;BME280_pressure;Samples;Min_cycle;Max_cycle;Signal;HPM_P1;HPM_P2
2023/03/26 00:01:58;;;;;;;12.68;4.80;;;;;;;;;;4192570;28;20052;-58
2023/03/26 00:04:20;;;;;;;9.82;5.57;;;;;;;;;;4194960;28;20040;-58
2023/03/26 00:06:40;;;;;;;9.48;4.85;;;;;;;;;;4191325;28;20052;-58
2023/03/26 00:09:00;;;;;;;10.75;4.03;;;;;;;;;;4190108;28;20044;-58
2023/03/26 00:11:21;;;;;;;10.27;5.20;;;;;;;;;;4191639;28;20056;-58
2023/03/26 00:13:42;;;;;;;8.63;5.22;;;;;;;;;;4191745;28;20244;-58
2023/03/26 00:16:03;;;;;;;9.73;5.28;;;;;;;;;;4191689;28;20146;-58
2023/03/26 00:18:30;;;;;;;12.57;4.90;;;;;;;;;;4192038;28;20374;-58
2023/03/26 00:20:51;;;;;;;9.45;5.63;;;;;;;;;;4192203;28;20240;-59
2023/03/26 00:23:12;;;;;;;9.82;5.47;;;;;;;;;;4190829;28;20072;-58
2023/03/26 00:25:33;;;;;;;7.88;4.65;;;;;;;;;;4192525;28;20048;-58
2023/03/26 00:27:53;;;;;;;11.63;4.57;;;;;;;;;;4192155;28;20116;-58
2023/03/26 00:30:14;;;;;;;9.07;4.95;;;;;;;;;;4192815;28;20086;-58
2023/03/26 00:32:34;;;;;;;10.00;4.78;;;;;;;;;;4190726;28;20048;-58
2023/03/26 00:34:54;;;;;;;12.20;5.53;;;;;;;;;;4192173;28;20112;-58
2023/03/26 00:37:15;;;;;;;10.52;5.25;;;;;;;;;;4192960;28;20047;-58
2023/03/26 00:39:36;;;;;;;9.60;4.30;;;;;;;;;;4191297;28;20370;-58
2023/03/26 00:41:56;;;;;;;8.93;4.05;;;;;;;;;;4191105;28;20079;-58
2023/03/26 00:44:16;;;;;;;7.45;5.07;;;;;;;;;;4192378;28;20109;-58
2023/03/26 00:46:37;;;;;;;8.32;4.28;;;;;;;;;;4192256;28;20105;-58
2023/03/26 00:48:58;;;;;;;14.40;5.38;;;;;;;;;;4193110;28;20083;-58
2023/03/26 00:51:19;;;;;;;12.77;5.10;;;;;;;;;;4190542;28;20047;-58
2023/03/26 00:53:40;;;;;;;11.23;4.85;;;;;;;;;;4191146;28;20044;-58
2023/03/26 00:56:00;;;;;;;12.40;5.15;;;;;;;;;;4192709;28;20140;-58
2023/03/26 00:58:21;;;;;;;13.77;6.15;;;;;;;;;;4193790;28;20051;-58
2023/03/26 01:00:56;;;;;;;6.47;5.00;;;;;;;;;;4189464;28;20398;-58
2023/03/26 01:03:17;;;;;;;7.50;3.88;;;;;;;;;;4191431;28;20086;-59
2023/03/26 01:05:51;;;;;;;7.40;2.95;;;;;;;;;;4192882;28;20044;-59
2023/03/26 01:08:15;;;;;;;5.75;3.53;;;;;;;;;;4191474;28;20052;-59
2023/03/26 01:10:37;;;;;;;5.22;3.88;;;;;;;;;;4191255;28;20406;-58
2023/03/26 01:12:57;;;;;;;14.07;5.50;;;;;;;;;;4193469;28;20106;-59
2023/03/26 01:15:17;;;;;;;11.40;5.35;;;;;;;;;;4194342;28;20277;-59
2023/03/26 01:17:38;;;;;;;11.40;4.72;;;;;;;;;;4188478;28;20086;-59
2023/03/26 01:20:15;;;;;;;9.10;3.90;;;;;;;;;;4190935;28;20039;-58
2023/03/26 01:22:36;;;;;;;9.80;3.85;;;;;;;;;;4193639;28;20230;-58
2023/03/26 01:24:57;;;;;;;7.53;6.47;;;;;;;;;;4193382;28;20036;-58
2023/03/26 01:27:23;;;;;;;11.75;4.10;;;;;;;;;;4190715;28;20083;-58
2023/03/26 01:29:47;;;;;;;13.27;5.53;;;;;;;;;;4191901;28;20052;-58
2023/03/26 01:32:18;;;;;;;5.55;3.47;;;;;;;;;;4188991;28;20056;-58
2023/03/26 01:34:48;;;;;;;8.27;4.97;;;;;;;;;;4189548;28;20083;-59
2023/03/26 01:37:29;;;;;;;6.85;2.60;;;;;;;;;;4190061;28;20055;-58
2023/03/26 01:39:52;;;;;;;9.63;3.95;;;;;;;;;;4188916;28;20091;-59
2023/03/26 01:42:15;;;;;;;7.47;3.67;;;;;;;;;;4189611;28;20366;-59
2023/03/26 01:44:34;;;;;;;;;;;;;;;;;;4190366;28;20076;-59
2023/03/26 01:46:55;;;;;;;7.20;3.30;;;;;;;;;;4189934;28;19923;-59
2023/03/26 01:49:17;;;;;;;8.13;3.40;;;;;;;;;;4190333;28;20106;-59
2023/03/26 01:51:37;;;;;;;7.50;4.03;;;;;;;;;;4190696;28;20055;-59
2023/03/26 01:53:59;;;;;;;4.97;4.18;;;;;;;;;;4190146;28;20052;-58
2023/03/26 01:56:34;;;;;;;12.40;4.57;;;;;;;;;;4190308;28;20091;-59
2023/03/26 01:59:03;;;;;;;6.43;4.18;;;;;;;;;;4192215;28;20366;-59
2023/03/26 02:01:30;;;;;;;6.93;3.78;;;;;;;;;;4191831;28;20047;-58
2023/03/26 02:03:52;;;;;;;8.70;4.25;;;;;;;;;;4190127;28;20170;-58
2023/03/26 02:06:16;;;;;;;12.03;4.50;;;;;;;;;;4192883;28;20088;-58
2023/03/26 02:08:40;;;;;;;11.52;3.50;;;;;;;;;;4193973;28;20044;-59
2023/03/26 02:11:03;;;;;;;6.15;4.65;;;;;;;;;;4188307;28;20149;-59
2023/03/26 02:13:23;;;;;;;20.65;6.90;;;;;;;;;;4191607;28;20048;-59
2023/03/26 02:16:04;;;;;;;9.98;5.18;;;;;;;;;;4192462;28;20083;-58
2023/03/26 02:18:35;;;;;;;11.32;4.18;;;;;;;;;;4190018;28;20087;-58
2023/03/26 02:20:55;;;;;;;8.02;4.53;;;;;;;;;;4189531;28;20163;-59
2023/03/26 02:23:15;;;;;;;14.18;4.15;;;;;;;;;;4191874;28;20090;-58
2023/03/26 02:25:38;;;;;;;5.43;3.95;;;;;;;;;;4191349;28;20044;-59
2023/03/26 02:27:59;;;;;;;12.35;4.25;;;;;;;;;;4190890;28;20048;-59
2023/03/26 02:30:24;;;;;;;6.57;4.30;;;;;;;;;;4188623;28;20044;-59
2023/03/26 02:32:44;;;;;;;8.55;4.38;;;;;;;;;;4188827;28;20375;-59
2023/03/26 02:35:05;;;;;;;8.13;3.05;;;;;;;;;;4191782;28;20040;-58
2023/03/26 02:37:25;;;;;;;11.65;4.47;;;;;;;;;;4191752;28;20091;-59
2023/03/26 02:39:45;;;;;;;10.35;4.93;;;;;;;;;;4188919;28;20370;-59
2023/03/26 02:42:05;;;;;;;14.52;4.32;;;;;;;;;;4191022;28;20044;-59
2023/03/26 02:44:26;;;;;;;7.15;4.18;;;;;;;;;;4193311;28;20090;-59
2023/03/26 02:46:46;;;;;;;8.00;5.57;;;;;;;;;;4187960;28;20379;-59
2023/03/26 02:49:07;;;;;;;5.25;4.55;;;;;;;;;;4188682;28;20039;-59
2023/03/26 02:51:27;;;;;;;6.93;3.92;;;;;;;;;;4192610;28;20044;-59
2023/03/26 02:53:48;;;;;;;9.25;4.18;;;;;;;;;;4193665;28;20291;-59
2023/03/26 02:56:08;;;;;;;7.00;3.95;;;;;;;;;;4186903;28;20302;-58
2023/03/26 02:58:29;;;;;;;9.52;4.20;;;;;;;;;;4188987;28;20051;-59
2023/03/26 03:00:49;;;;;;;14.13;4.88;;;;;;;;;;4189047;28;20043;-59
2023/03/26 03:03:10;;;;;;;9.00;4.28;;;;;;;;;;4188138;28;20122;-59
2023/03/26 03:05:31;;;;;;;12.00;4.25;;;;;;;;;;4187125;28;20228;-59
2023/03/26 03:07:51;;;;;;;14.15;4.55;;;;;;;;;;4189434;28;20383;-59
2023/03/26 03:10:12;;;;;;;12.25;5.13;;;;;;;;;;4194657;28;20048;-59
2023/03/26 03:12:32;;;;;;;5.68;4.00;;;;;;;;;;4189517;28;20052;-59
2023/03/26 03:14:52;;;;;;;8.07;5.00;;;;;;;;;;4189271;28;20402;-59
2023/03/26 03:17:12;;;;;;;14.52;5.07;;;;;;;;;;4189518;28;20095;-59
2023/03/26 03:19:33;;;;;;;12.50;6.25;;;;;;;;;;4190481;28;20270;-59
2023/03/26 03:21:53;;;;;;;14.48;4.80;;;;;;;;;;4189234;28;20048;-59
2023/03/26 03:24:17;;;;;;;17.05;6.03;;;;;;;;;;4189308;28;20077;-59
2023/03/26 03:26:37;;;;;;;9.32;4.82;;;;;;;;;;4189196;28;20111;-59
2023/03/26 03:28:58;;;;;;;7.90;5.18;;;;;;;;;;4189962;28;20071;-59
2023/03/26 03:31:18;;;;;;;10.00;3.92;;;;;;;;;;4190560;28;20139;-59
2023/03/26 03:33:40;;;;;;;17.48;5.15;;;;;;;;;;4189382;28;20079;-59
2023/03/26 03:36:00;;;;;;;9.77;6.07;;;;;;;;;;4190678;28;20059;-59
2023/03/26 03:38:20;;;;;;;16.90;5.63;;;;;;;;;;4190464;28;20072;-59
2023/03/26 03:40:40;;;;;;;9.52;5.82;;;;;;;;;;4191229;28;20056;-59
2023/03/26 03:43:00;;;;;;;10.60;5.13;;;;;;;;;;4189072;28;20079;-59
2023/03/26 03:45:20;;;;;;;8.93;4.65;;;;;;;;;;4193614;28;20047;-58
2023/03/26 03:47:41;;;;;;;12.25;4.55;;;;;;;;;;4191305;28;20063;-59
2023/03/26 03:50:01;;;;;;;13.50;5.18;;;;;;;;;;4192048;28;20036;-59
2023/03/26 03:52:22;;;;;;;14.30;5.25;;;;;;;;;;4192744;28;20426;-59
2023/03/26 03:54:41;;;;;;;8.30;4.10;;;;;;;;;;4199696;28;20036;-59
2023/03/26 03:57:02;;;;;;;9.98;4.50;;;;;;;;;;4191808;28;20052;-59
2023/03/26 03:59:22;;;;;;;8.55;4.38;;;;;;;;;;4192442;28;20036;-59
2023/03/26 04:01:45;;;;;;;4.80;3.35;;;;;;;;;;4193059;28;20159;-59
2023/03/26 04:04:05;;;;;;;10.38;5.30;;;;;;;;;;4192471;28;20083;-59
2023/03/26 04:06:29;;;;;;;8.65;4.07;;;;;;;;;;4190166;28;20059;-59
2023/03/26 04:08:49;;;;;;;7.68;4.18;;;;;;;;;;4193020;28;20047;-58
2023/03/26 04:11:09;;;;;;;10.88;4.50;;;;;;;;;;4190336;28;20104;-58
2023/03/26 04:13:30;;;;;;;9.80;4.22;;;;;;;;;;4190897;28;20446;-59
2023/03/26 04:15:50;;;;;;;8.93;4.57;;;;;;;;;;4193802;28;20052;-59
2023/03/26 04:18:10;;;;;;;19.45;4.25;;;;;;;;;;4190867;28;20083;-58
2023/03/26 04:20:30;;;;;;;8.02;3.80;;;;;;;;;;4202186;28;20091;-59
2023/03/26 04:22:51;;;;;;;9.02;4.38;;;;;;;;;;4191437;28;20051;-59
2023/03/26 04:25:12;;;;;;;12.27;3.05;;;;;;;;;;4191163;28;20036;-59
2023/03/26 04:27:35;;;;;;;8.82;3.75;;;;;;;;;;4191246;28;20043;-59
2023/03/26 04:29:57;;;;;;;;;;;;;;;;;;4191677;28;20082;-59
2023/03/26 04:32:28;;;;;;;13.70;5.10;;;;;;;;;;4190834;28;20264;-59
2023/03/26 04:34:48;;;;;;;8.23;3.70;;;;;;;;;;4191533;28;20104;-58
2023/03/26 04:37:10;;;;;;;11.57;4.43;;;;;;;;;;4191783;28;20079;-58
2023/03/26 04:39:32;;;;;;;5.57;4.27;;;;;;;;;;4190263;28;20079;-59
2023/03/26 04:41:52;;;;;;;8.75;4.47;;;;;;;;;;4191327;28;20617;-59
2023/03/26 04:44:16;;;;;;;12.65;4.32;;;;;;;;;;4191250;28;20290;-58
2023/03/26 04:46:36;;;;;;;8.13;4.38;;;;;;;;;;4192670;28;20051;-59
2023/03/26 04:48:56;;;;;;;5.68;3.88;;;;;;;;;;4190834;28;20269;-59
2023/03/26 04:51:17;;;;;;;11.35;4.32;;;;;;;;;;4191454;28;20059;-59
2023/03/26 04:53:38;;;;;;;7.78;4.32;;;;;;;;;;4191969;28;20071;-59
2023/03/26 04:56:06;;;;;;;7.60;4.35;;;;;;;;;;4190714;28;20052;-59
2023/03/26 04:58:31;;;;;;;9.23;5.32;;;;;;;;;;4185627;28;20091;-58
2023/03/26 05:00:51;;;;;;;10.85;4.70;;;;;;;;;;4193363;28;20063;-59
2023/03/26 05:03:11;;;;;;;6.38;4.57;;;;;;;;;;4189927;28;20118;-59
2023/03/26 05:05:32;;;;;;;11.15;4.78;;;;;;;;;;4190782;28;20048;-59
2023/03/26 05:07:52;;;;;;;6.13;4.78;;;;;;;;;;4192811;28;20048;-59
2023/03/26 05:10:13;;;;;;;8.60;4.57;;;;;;;;;;4193432;28;20059;-59
2023/03/26 05:12:34;;;;;;;11.02;5.03;;;;;;;;;;4189206;28;20052;-59
2023/03/26 05:14:54;;;;;;;17.30;6.78;;;;;;;;;;4191605;28;20078;-59
2023/03/26 05:17:17;;;;;;;9.98;4.22;;;;;;;;;;4193437;28;20087;-59
2023/03/26 05:19:38;;;;;;;9.73;4.93;;;;;;;;;;4191843;28;20044;-59
2023/03/26 05:21:58;;;;;;;10.52;5.07;;;;;;;;;;4189838;28;20044;-59
2023/03/26 05:24:19;;;;;;;14.55;4.35;;;;;;;;;;4192056;28;20044;-59
2023/03/26 05:26:39;;;;;;;15.15;6.65;;;;;;;;;;4193526;28;20055;-59
2023/03/26 05:29:01;;;;;;;9.80;4.70;;;;;;;;;;4189159;28;20120;-58
2023/03/26 05:31:22;;;;;;;9.00;6.05;;;;;;;;;;4190798;28;20056;-59
2023/03/26 05:33:42;;;;;;;15.50;5.20;;;;;;;;;;4192400;28;20040;-59
2023/03/26 05:36:08;;;;;;;9.20;4.93;;;;;;;;;;4190506;28;20094;-59
2023/03/26 05:38:28;;;;;;;15.73;6.00;;;;;;;;;;4190396;28;20047;-59
2023/03/26 05:40:48;;;;;;;10.55;4.63;;;;;;;;;;4190639;28;20043;-59
2023/03/26 05:43:09;;;;;;;10.45;5.25;;;;;;;;;;4189874;28;20060;-58
2023/03/26 05:45:29;;;;;;;8.43;4.63;;;;;;;;;;4192608;28;20071;-58
2023/03/26 05:47:52;;;;;;;12.07;5.13;;;;;;;;;;4191591;28;20048;-59
2023/03/26 05:50:13;;;;;;;12.45;5.70;;;;;;;;;;4190064;28;20052;-59
2023/03/26 05:52:33;;;;;;;12.05;4.45;;;;;;;;;;4188112;28;20121;-59
2023/03/26 05:54:53;;;;;;;11.20;6.22;;;;;;;;;;4190382;28;20048;-59
2023/03/26 05:57:13;;;;;;;17.98;6.80;;;;;;;;;;4188267;28;20116;-58
2023/03/26 05:59:34;;;;;;;7.05;5.88;;;;;;;;;;4190792;28;20097;-58
2023/03/26 06:01:53;;;;;;;16.27;6.07;;;;;;;;;;4190935;28;20043;-59
2023/03/26 06:04:17;;;;;;;14.98;6.72;;;;;;;;;;4189841;28;20056;-59
2023/03/26 06:06:38;;;;;;;18.27;7.53;;;;;;;;;;4190161;28;20140;-58
2023/03/26 06:08:58;;;;;;;17.35;7.35;;;;;;;;;;4189344;28;20068;-58
2023/03/26 06:11:22;;;;;;;15.65;8.73;;;;;;;;;;4191671;28;20056;-59
2023/03/26 06:13:43;;;;;;;18.00;7.93;;;;;;;;;;4190032;28;20299;-59
2023/03/26 06:16:03;;;;;;;18.10;8.40;;;;;;;;;;4188856;28;20371;-59
2023/03/26 06:18:24;;;;;;;12.75;7.95;;;;;;;;;;4192171;28;20107;-59
2023/03/26 06:20:44;;;;;;;14.38;7.53;;;;;;;;;;4191094;28;20311;-59
2023/03/26 06:23:04;;;;;;;19.20;6.85;;;;;;;;;;4191707;28;20079;-59
2023/03/26 06:25:25;;;;;;;13.15;6.00;;;;;;;;;;4191955;28;20078;-59
2023/03/26 06:27:45;;;;;;;18.33;7.53;;;;;;;;;;4192770;28;20056;-58
2023/03/26 06:30:05;;;;;;;15.15;6.28;;;;;;;;;;4191499;28;20366;-58
2023/03/26 06:32:26;;;;;;;17.80;9.45;;;;;;;;;;4189672;28;20107;-58
2023/03/26 06:34:46;;;;;;;20.55;7.90;;;;;;;;;;4190642;28;20047;-59
2023/03/26 06:37:06;;;;;;;11.88;6.93;;;;;;;;;;4190635;28;20087;-59
2023/03/26 06:39:26;;;;;;;16.15;6.80;;;;;;;;;;4192876;28;20048;-59
2023/03/26 06:41:47;;;;;;;21.45;5.43;;;;;;;;;;4189039;28;20390;-59
2023/03/26 06:44:07;;;;;;;19.58;7.55;;;;;;;;;;4189974;28;20047;-58
2023/03/26 06:46:27;;;;;;;14.32;6.07;;;;;;;;;;4192539;28;20135;-59
2023/03/26 06:48:47;;;;;;;21.35;6.93;;;;;;;;;;4193656;28;20106;-58
2023/03/26 06:51:08;;;;;;;11.02;5.85;;;;;;;;;;4188132;28;20240;-58
2023/03/26 06:53:28;;;;;;;11.93;6.53;;;;;;;;;;4191368;28;20379;-58
2023/03/26 06:55:48;;;;;;;12.32;5.82;;;;;;;;;;4192977;28;20091;-58
2023/03/26 06:58:10;;;;;;;15.73;6.75;;;;;;;;;;4190400;28;20056;-59
2023/03/26 07:00:30;;;;;;;12.77;5.40;;;;;;;;;;4190062;28;20398;-58
2023/03/26 07:02:51;;;;;;;9.02;5.43;;;;;;;;;;4191737;28;20072;-59
2023/03/26 07:05:11;;;;;;;16.23;5.57;;;;;;;;;;4192881;28;20095;-59
2023/03/26 07:07:31;;;;;;;16.10;6.15;;;;;;;;;;4187666;28;20052;-59
2023/03/26 07:09:51;;;;;;;14.93;6.35;;;;;;;;;;4189799;28;20064;-59
2023/03/26 07:12:11;;;;;;;11.55;4.32;;;;;;;;;;4191730;28;20378;-59
2023/03/26 07:14:31;;;;;;;11.73;4.97;;;;;;;;;;4187827;28;20048;-59
2023/03/26 07:16:51;;;;;;;7.55;4.88;;;;;;;;;;4189183;28;20102;-58
2023/03/26 07:19:11;;;;;;;9.45;4.75;;;;;;;;;;4190554;28;20051;-59
2023/03/26 07:21:31;;;;;;;18.20;6.15;;;;;;;;;;4192348;28;20241;-59
2023/03/26 07:23:51;;;;;;;13.73;6.10;;;;;;;;;;4192187;28;20091;-59
2023/03/26 07:26:27;;;;;;;8.50;4.80;;;;;;;;;;4191546;28;20391;-59
2023/03/26 07:28:50;;;;;;;17.15;6.65;;;;;;;;;;4191510;28;20465;-59
2023/03/26 07:31:25;;;;;;;10.43;5.20;;;;;;;;;;4192583;28;20043;-58
2023/03/26 07:33:56;;;;;;;15.07;5.45;;;;;;;;;;4192180;28;20051;-59
2023/03/26 07:36:20;;;;;;;12.30;6.22;;;;;;;;;;4191756;28;20060;-58
2023/03/26 07:38:44;;;;;;;10.65;4.25;;;;;;;;;;4192087;28;20040;-59
2023/03/26 07:41:03;;;;;;;;;;;;;;;;;;4193654;28;20082;-59
2023/03/26 07:43:53;;;;;;;7.35;4.32;;;;;;;;;;4191907;28;19952;-58
2023/03/26 07:46:14;;;;;;;14.35;5.47;;;;;;;;;;4186670;28;20040;-59
2023/03/26 07:48:46;;;;;;;20.23;5.30;;;;;;;;;;4194436;28;20369;-59
2023/03/26 07:51:07;;;;;;;8.93;4.90;;;;;;;;;;4191608;28;20060;-59
2023/03/26 07:53:27;;;;;;;10.02;4.15;;;;;;;;;;4192020;28;20367;-58
2023/03/26 07:55:51;;;;;;;8.00;4.65;;;;;;;;;;4193387;28;20071;-59
2023/03/26 07:58:11;;;;;;;5.32;4.82;;;;;;;;;;4194724;28;20227;-59
2023/03/26 08:00:40;;;;;;;15.35;5.82;;;;;;;;;;4192015;28;20090;-59
2023/03/26 08:03:06;;;;;;;7.70;4.07;;;;;;;;;;4191858;28;20040;-59
2023/03/26 08:05:29;;;;;;;8.88;4.90;;;;;;;;;;4192808;28;20068;-59
2023/03/26 08:08:26;;;;;;;9.80;4.63;;;;;;;;;;4191104;28;20048;-59
2023/03/26 08:10:49;;;;;;;13.00;4.78;;;;;;;;;;4145764;28;20052;-59
2023/03/26 08:13:11;;;;;;;10.88;4.95;;;;;;;;;;4187350;28;20055;-59
2023/03/26 08:15:36;;;;;;;17.13;5.97;;;;;;;;;;4192402;28;20048;-59
2023/03/26 08:17:56;;;;;;;10.23;5.75;;;;;;;;;;4191671;28;20300;-59
2023/03/26 08:20:17;;;;;;;9.65;4.70;;;;;;;;;;4192022;28;20051;-59
2023/03/26 08:22:40;;;;;;;13.98;4.50;;;;;;;;;;4191236;28;20473;-59
2023/03/26 08:25:10;;;;;;;8.13;4.65;;;;;;;;;;4192104;28;20056;-59
2023/03/26 08:27:42;;;;;;;7.05;3.70;;;;;;;;;;4191965;28;20083;-59
2023/03/26 08:30:06;;;;;;;10.18;4.15;;;;;;;;;;4191051;28;20267;-58
2023/03/26 08:32:26;;;;;;;7.60;3.30;;;;;;;;;;4191508;28;20091;-59
2023/03/26 08:34:47;;;;;;;8.18;3.25;;;;;;;;;;4191581;28;20048;-59
2023/03/26 08:37:08;;;;;;;7.68;4.07;;;;;;;;;;4190775;28;20056;-59
2023/03/26 08:39:29;;;;;;;6.45;3.55;;;;;;;;;;4190151;28;20048;-58
2023/03/26 08:42:04;;;;;;;9.52;3.25;;;;;;;;;;4190921;28;20087;-59
2023/03/26 08:44:46;;;;;;;4.93;2.35;;;;;;;;;;4190668;28;20039;-58
2023/03/26 08:47:16;;;;;;;7.90;3.10;;;;;;;;;;4190584;28;20066;-59
2023/03/26 08:49:42;;;;;;;14.38;3.80;;;;;;;;;;4191777;28;20082;-59
2023/03/26 08:52:06;;;;;;;10.77;3.15;;;;;;;;;;4190401;28;20283;-58
2023/03/26 08:54:26;;;;;;;6.75;3.08;;;;;;;;;;4190550;28;20119;-59
2023/03/26 08:56:55;;;;;;;7.45;2.60;;;;;;;;;;4191107;28;20087;-59
2023/03/26 08:59:22;;;;;;;6.97;2.72;;;;;;;;;;4191530;28;20055;-58
2023/03/26 09:02:01;;;;;;;8.43;3.80;;;;;;;;;;4190573;28;20104;-58
2023/03/26 09:04:24;;;;;;;6.68;2.55;;;;;;;;;;4191522;28;20074;-58
2023/03/26 09:06:44;;;;;;;;;;;;;;;;;;4190326;28;20471;-59
2023/03/26 09:09:11;;;;;;;4.00;3.13;;;;;;;;;;4188909;28;19924;-58
2023/03/26 09:11:44;;;;;;;5.57;2.78;;;;;;;;;;4193442;28;20115;-58
2023/03/26 09:14:23;;;;;;;4.03;2.35;;;;;;;;;;4192540;28;20075;-58
2023/03/26 09:17:02;;;;;;;8.05;3.60;;;;;;;;;;4191551;28;20044;-58
2023/03/26 09:19:35;;;;;;;4.72;3.70;;;;;;;;;;4192117;28;20055;-58
2023/03/26 09:21:55;;;;;;;;;;;;;;;;;;4194264;28;20071;-58
2023/03/26 09:24:27;;;;;;;6.78;3.25;;;;;;;;;;4190636;28;19989;-59
2023/03/26 09:26:59;;;;;;;4.82;4.38;;;;;;;;;;4190152;28;20052;-59
2023/03/26 09:29:26;;;;;;;12.87;5.23;;;;;;;;;;4193096;28;20266;-58
2023/03/26 09:31:46;;;;;;;4.13;3.03;;;;;;;;;;4190577;28;20274;-58
2023/03/26 09:34:30;;;;;;;9.75;4.93;;;;;;;;;;4190089;28;20072;-58
2023/03/26 09:36:55;;;;;;;9.35;3.40;;;;;;;;;;4141182;28;20325;-58
2023/03/26 09:39:22;;;;;;;7.22;3.95;;;;;;;;;;4140073;28;20084;-59
2023/03/26 09:41:49;;;;;;;8.77;3.40;;;;;;;;;;4139644;28;20041;-58
2023/03/26 09:44:28;;;;;;;4.20;2.58;;;;;;;;;;4139781;28;20465;-58
2023/03/26 09:46:54;;;;;;;4.93;3.38;;;;;;;;;;4140490;28;20042;-59
2023/03/26 09:49:25;;;;;;;3.05;2.60;;;;;;;;;;4141990;28;20317;-58
2023/03/26 09:52:05;;;;;;;6.53;3.80;;;;;;;;;;4138887;28;20138;-59
2023/03/26 09:54:28;;;;;;;4.80;4.13;;;;;;;;;;4139916;28;20150;-58
2023/03/26 09:57:02;;;;;;;6.35;4.05;;;;;;;;;;4142194;28;20092;-58
2023/03/26 09:59:41;;;;;;;6.65;4.45;;;;;;;;;;4144594;28;20395;-58
2023/03/26 10:02:03;;;;;;;7.78;3.47;;;;;;;;;;4137916;28;20049;-58
2023/03/26 10:04:26;;;;;;;15.50;4.82;;;;;;;;;;4138402;28;20053;-58
2023/03/26 10:06:53;;;;;;;3.45;2.83;;;;;;;;;;4139179;28;20122;-58
2023/03/26 10:09:22;;;;;;;12.02;4.03;;;;;;;;;;4139008;28;20117;-58
2023/03/26 10:11:42;;;;;;;6.68;3.55;;;;;;;;;;4139306;28;20040;-58
2023/03/26 10:14:02;;;;;;;6.15;3.38;;;;;;;;;;4172899;28;20374;-58
2023/03/26 10:16:30;;;;;;;4.70;4.15;;;;;;;;;;4190460;28;20063;-58
2023/03/26 10:18:53;;;;;;;6.43;3.63;;;;;;;;;;4186778;28;20056;-58
2023/03/26 10:21:13;;;;;;;9.45;2.88;;;;;;;;;;4191015;28;20057;-58
2023/03/26 10:23:36;;;;;;;3.55;3.25;;;;;;;;;;4190201;28;20103;-59
2023/03/26 10:26:19;;;;;;;7.03;3.58;;;;;;;;;;4191065;28;20067;-58
2023/03/26 10:29:06;;;;;;;4.18;3.60;;;;;;;;;;4190241;28;20056;-58
2023/03/26 10:31:35;;;;;;;10.02;3.97;;;;;;;;;;4174810;28;20052;-58
2023/03/26 10:34:05;;;;;;;7.63;3.45;;;;;;;;;;4191737;28;20391;-58
2023/03/26 10:36:25;;;;;;;3.63;3.42;;;;;;;;;;4190075;28;20056;-59
2023/03/26 10:39:04;;;;;;;11.50;4.57;;;;;;;;;;4189670;28;20040;-58
2023/03/26 10:41:51;;;;;;;11.40;3.42;;;;;;;;;;4191587;28;20079;-59
2023/03/26 10:44:24;;;;;;;9.75;3.60;;;;;;;;;;4192207;28;20040;-58
2023/03/26 10:46:50;;;;;;;6.65;3.15;;;;;;;;;;4189154;28;20094;-59
2023/03/26 10:49:10;;;;;;;2.75;2.65;;;;;;;;;;4191522;28;20271;-59
2023/03/26 10:51:54;;;;;;;5.65;4.50;;;;;;;;;;4193407;28;20063;-58
2023/03/26 10:54:33;;;;;;;3.13;2.83;;;;;;;;;;4190434;28;20249;-58
2023/03/26 10:56:55;;;;;;;3.17;2.97;;;;;;;;;;4193993;28;20048;-59
2023/03/26 10:59:16;;;;;;;5.53;3.20;;;;;;;;;;4196176;28;20043;-58
2023/03/26 11:01:55;;;;;;;5.00;3.42;;;;;;;;;;4196273;28;20048;-59
2023/03/26 11:04:24;;;;;;;4.70;4.15;;;;;;;;;;4193134;28;20051;-59
2023/03/26 11:06:44;;;;;;;6.88;4.10;;;;;;;;;;4194981;28;20387;-59
2023/03/26 11:09:23;;;;;;;7.20;2.78;;;;;;;;;;4196407;28;20048;-58
2023/03/26 11:11:44;;;;;;;5.28;2.45;;;;;;;;;;4192269;28;20447;-58
2023/03/26 11:14:10;;;;;;;2.78;2.28;;;;;;;;;;4193596;28;20059;-59
2023/03/26 11:16:36;;;;;;;1.80;1.70;;;;;;;;;;4194959;28;20359;-59
2023/03/26 11:18:56;;;;;;;2.28;2.13;;;;;;;;;;4191430;28;20083;-58
2023/03/26 11:21:16;;;;;;;2.85;2.65;;;;;;;;;;4192712;28;20087;-59
2023/03/26 11:23:43;;;;;;;1.95;1.50;;;;;;;;;;4192712;28;20366;-59
2023/03/26 11:26:16;;;;;;;1.98;1.73;;;;;;;;;;4192776;28;20048;-59
2023/03/26 11:28:37;;;;;;;2.00;1.80;;;;;;;;;;4193682;28;20048;-58
2023/03/26 11:31:19;;;;;;;2.05;1.42;;;;;;;;;;4192660;28;20048;-58
2023/03/26 11:33:43;;;;;;;1.90;1.15;;;;;;;;;;4190964;28;20078;-58
2023/03/26 11:36:26;;;;;;;2.08;1.65;;;;;;;;;;4192034;28;20051;-59
2023/03/26 11:38:48;;;;;;;3.50;1.63;;;;;;;;;;4192159;28;20047;-58
2023/03/26 11:41:19;;;;;;;1.77;1.67;;;;;;;;;;4191114;28;20056;-59
2023/03/26 11:43:44;;;;;;;2.03;1.80;;;;;;;;;;4191951;28;20117;-59
2023/03/26 11:46:07;;;;;;;2.92;1.38;;;;;;;;;;4190167;28;20044;-59
2023/03/26 11:48:31;;;;;;;2.88;2.10;;;;;;;;;;4189240;28;20071;-58
2023/03/26 11:50:54;;;;;;;1.73;1.30;;;;;;;;;;4193049;28;20365;-58
2023/03/26 11:53:16;;;;;;;1.73;1.40;;;;;;;;;;4193055;28;20043;-58
2023/03/26 11:55:39;;;;;;;3.63;1.40;;;;;;;;;;4191678;28;20051;-58
2023/03/26 11:58:00;;;;;;;2.08;1.30;;;;;;;;;;4190347;28;20060;-58
2023/03/26 12:00:22;;;;;;;1.35;1.10;;;;;;;;;;4193694;28;20123;-58
2023/03/26 12:02:44;;;;;;;2.88;1.50;;;;;;;;;;4193525;28;20056;-58
2023/03/26 12:05:21;;;;;;;1.40;1.40;;;;;;;;;;4193145;28;20039;-58
2023/03/26 12:07:58;;;;;;;1.63;1.58;;;;;;;;;;4192358;28;20039;-58
2023/03/26 12:10:37;;;;;;;1.95;1.50;;;;;;;;;;4186958;28;20079;-58
2023/03/26 12:13:02;;;;;;;2.05;1.45;;;;;;;;;;4192156;28;20047;-58
2023/03/26 12:15:24;;;;;;;1.30;1.20;;;;;;;;;;4191929;28;20120;-58
2023/03/26 12:17:45;;;;;;;1.15;1.15;;;;;;;;;;4191579;28;20143;-58
2023/03/26 12:20:22;;;;;;;1.55;1.30;;;;;;;;;;4191790;28;20367;-58
2023/03/26 12:22:45;;;;;;;2.05;1.20;;;;;;;;;;4192957;28;20051;-58
2023/03/26 12:25:21;;;;;;;1.65;1.55;;;;;;;;;;4191119;28;20382;-58
2023/03/26 12:28:12;;;;;;;2.08;1.33;;;;;;;;;;4193397;28;20381;-58
2023/03/26 12:30:36;;;;;;;1.77;1.20;;;;;;;;;;4189661;28;20044;-58
2023/03/26 12:33:04;;;;;;;2.05;1.77;;;;;;;;;;4191768;28;20044;-58
2023/03/26 12:35:26;;;;;;;1.88;1.67;;;;;;;;;;4191718;28;20231;-57
2023/03/26 12:37:47;;;;;;;2.63;1.20;;;;;;;;;;4192732;28;20052;-58
2023/03/26 12:40:26;;;;;;;1.40;1.20;;;;;;;;;;4192407;28;20046;-58
2023/03/26 12:42:51;;;;;;;1.85;1.30;;;;;;;;;;4192224;28;20079;-58
2023/03/26 12:45:41;;;;;;;2.05;1.10;;;;;;;;;;4193042;28;20056;-58
2023/03/26 12:48:02;;;;;;;1.65;1.65;;;;;;;;;;4190607;28;20102;-58
2023/03/26 12:50:29;;;;;;;2.67;1.77;;;;;;;;;;4192799;28;20048;-58
2023/03/26 12:53:13;;;;;;;1.30;1.20;;;;;;;;;;4192126;28;20044;-58
2023/03/26 12:55:35;;;;;;;1.60;1.48;;;;;;;;;;4189150;28;20271;-58
2023/03/26 12:58:03;;;;;;;2.17;1.50;;;;;;;;;;4190672;28;20123;-58
2023/03/26 13:00:44;;;;;;;2.80;1.23;;;;;;;;;;4189006;28;20044;-58
2023/03/26 13:03:23;;;;;;;1.67;1.40;;;;;;;;;;4189610;28;20039;-58
2023/03/26 13:05:56;;;;;;;2.97;1.80;;;;;;;;;;4191237;28;20052;-58
2023/03/26 13:08:34;;;;;;;2.00;1.90;;;;;;;;;;4191526;28;20110;-58
2023/03/26 13:11:12;;;;;;;1.55;1.45;;;;;;;;;;4191033;28;20052;-58
2023/03/26 13:13:52;;;;;;;1.65;1.10;;;;;;;;;;4189862;28;20043;-58
2023/03/26 13:16:27;;;;;;;2.55;1.45;;;;;;;;;;4190811;28;20135;-58
2023/03/26 13:19:06;;;;;;;1.67;1.20;;;;;;;;;;4191467;28;20044;-58
2023/03/26 13:21:29;;;;;;;1.92;1.70;;;;;;;;;;4190093;28;20405;-57
2023/03/26 13:24:12;;;;;;;2.53;2.38;;;;;;;;;;4190996;28;20036;-58
2023/03/26 13:26:59;;;;;;;1.38;1.27;;;;;;;;;;4191570;28;20418;-58
2023/03/26 13:29:33;;;;;;;2.08;1.85;;;;;;;;;;4191721;28;20094;-58
2023/03/26 13:32:16;;;;;;;1.65;1.55;;;;;;;;;;4191275;28;20051;-58
2023/03/26 13:34:49;;;;;;;1.88;1.60;;;;;;;;;;4178836;28;20079;-57
2023/03/26 13:37:11;;;;;;;2.37;1.53;;;;;;;;;;4190208;28;20083;-58
2023/03/26 13:39:32;;;;;;;1.33;1.17;;;;;;;;;;4190666;28;20283;-57
2023/03/26 13:42:02;;;;;;;1.75;1.20;;;;;;;;;;4191397;28;20235;-58
2023/03/26 13:44:32;;;;;;;1.35;1.25;;;;;;;;;;4192782;28;20598;-58
2023/03/26 13:46:54;;;;;;;1.17;1.17;;;;;;;;;;4190275;28;20048;-58
2023/03/26 13:49:16;;;;;;;1.15;1.10;;;;;;;;;;4190854;28;20232;-58
2023/03/26 13:51:42;;;;;;;1.70;1.05;;;;;;;;;;4191982;28;20370;-58
2023/03/26 13:54:21;;;;;;;1.33;1.20;;;;;;;;;;4190701;28;20389;-57
2023/03/26 13:56:46;;;;;;;1.35;1.25;;;;;;;;;;4190157;28;20056;-57
2023/03/26 13:59:11;;;;;;;2.05;1.40;;;;;;;;;;4191629;28;20082;-58
2023/03/26 14:01:34;;;;;;;1.98;1.88;;;;;;;;;;4192988;28;20043;-58
2023/03/26 14:03:57;;;;;;;2.27;1.40;;;;;;;;;;4193040;28;20405;-58
2023/03/26 14:06:18;;;;;;;1.30;1.30;;;;;;;;;;4190871;28;20040;-58
2023/03/26 14:08:41;;;;;;;1.20;1.20;;;;;;;;;;4192515;28;20036;-58
2023/03/26 14:11:09;;;;;;;1.20;1.20;;;;;;;;;;4195498;28;20044;-58
2023/03/26 14:14:05;;;;;;;1.73;1.73;;;;;;;;;;4188789;28;20240;-58
2023/03/26 14:16:27;;;;;;;1.20;1.20;;;;;;;;;;4122340;28;20075;-58
2023/03/26 14:19:06;;;;;;;2.15;2.13;;;;;;;;;;4186355;28;20115;-58
2023/03/26 14:21:44;;;;;;;1.50;1.50;;;;;;;;;;4189126;28;20279;-58
2023/03/26 14:24:16;;;;;;;1.70;1.27;;;;;;;;;;4189843;28;20111;-58
2023/03/26 14:26:36;;;;;;;2.25;1.23;;;;;;;;;;4188636;28;20052;-58
2023/03/26 14:29:11;;;;;;;1.10;1.10;;;;;;;;;;4188960;28;20044;-59